sensor_id;sensor_type;location;lat;lon;timestamp;P1;durP1;ratioP1;P2;durP2;ratioP2
4061;SDS011;2046;47.064;15.456;2023-08-24T00:01:00;6.57;;;4.38;;
4061;SDS011;2046;47.064;15.456;2023-08-24T00:03:27;5.57;;;4.70;;
4061;SDS011;2046;47.064;15.456;2023-08-24T00:05:54;5.75;;;4.70;;
4061;SDS011;2046;47.064;15.456;2023-08-24T00:08:20;10.50;;;4.80;;
4061;SDS011;2046;47.064;15.456;2023-08-24T00:10:47;5.68;;;4.53;;
4061;SDS011;2046;47.064;15.456;2023-08-24T00:13:13;6.70;;;4.90;;
4061;SDS011;2046;47.064;15.456;2023-08-24T00:15:40;7.00;;;4.65;;
4061;SDS011;2046;47.064;15.456;2023-08-24T00:18:07;5.30;;;4.57;;
4061;SDS011;2046;47.064;15.456;2023-08-24T00:20:34;7.65;;;4.60;;
4061;SDS011;2046;47.064;15.456;2023-08-24T00:23:00;9.07;;;5.30;;
4061;SDS011;2046;47.064;15.456;2023-08-24T00:25:27;8.80;;;4.65;;
4061;SDS011;2046;47.064;15.456;2023-08-24T00:27:53;9.73;;;5.13;;
4061;SDS011;2046;47.064;15.456;2023-08-24T00:30:20;5.85;;;4.47;;
4061;SDS011;2046;47.064;15.456;2023-08-24T00:32:47;5.78;;;4.43;;
4061;SDS011;2046;47.064;15.456;2023-08-24T00:35:14;6.07;;;4.63;;
4061;SDS011;2046;47.064;15.456;2023-08-24T00:37:40;6.43;;;4.53;;
4061;SDS011;2046;47.064;15.456;2023-08-24T00:40:07;5.93;;;3.97;;
4061;SDS011;2046;47.064;15.456;2023-08-24T00:42:40;5.50;;;4.25;;
4061;SDS011;2046;47.064;15.456;2023-08-24T00:45:07;6.28;;;4.22;;
4061;SDS011;2046;47.064;15.456;2023-08-24T00:47:36;5.53;;;4.55;;
4061;SDS011;2046;47.064;15.456;2023-08-24T00:50:03;9.50;;;4.72;;
4061;SDS011;2046;47.064;15.456;2023-08-24T00:52:31;6.43;;;4.40;;
4061;SDS011;2046;47.064;15.456;2023-08-24T00:55:00;7.10;;;4.60;;
4061;SDS011;2046;47.064;15.456;2023-08-24T00:57:27;5.75;;;4.70;;
4061;SDS011;2046;47.064;15.456;2023-08-24T00:59:57;4.85;;;4.35;;
4061;SDS011;2046;47.064;15.456;2023-08-24T01:02:25;4.07;;;2.97;;
4061;SDS011;2046;47.064;15.456;2023-08-24T01:04:52;6.03;;;4.43;;
4061;SDS011;2046;47.064;15.456;2023-08-24T01:07:18;5.32;;;4.13;;
4061;SDS011;2046;47.064;15.456;2023-08-24T01:09:45;5.30;;;4.65;;
4061;SDS011;2046;47.064;15.456;2023-08-24T01:17:25;5.25;;;4.57;;
4061;SDS011;2046;47.064;15.456;2023-08-24T01:19:55;8.45;;;4.35;;
4061;SDS011;2046;47.064;15.456;2023-08-24T01:24:53;7.47;;;4.35;;
4061;SDS011;2046;47.064;15.456;2023-08-24T01:27:20;4.68;;;4.10;;
4061;SDS011;2046;47.064;15.456;2023-08-24T01:29:47;4.60;;;4.03;;
4061;SDS011;2046;47.064;15.456;2023-08-24T01:32:14;5.82;;;3.92;;
4061;SDS011;2046;47.064;15.456;2023-08-24T01:34:41;5.75;;;4.47;;
4061;SDS011;2046;47.064;15.456;2023-08-24T01:37:08;6.22;;;4.55;;
4061;SDS011;2046;47.064;15.456;2023-08-24T01:39:42;4.85;;;4.03;;
4061;SDS011;2046;47.064;15.456;2023-08-24T01:42:10;4.97;;;4.20;;
4061;SDS011;2046;47.064;15.456;2023-08-24T01:44:37;5.28;;;4.32;;
4061;SDS011;2046;47.064;15.456;2023-08-24T01:47:06;7.40;;;4.47;;
4061;SDS011;2046;47.064;15.456;2023-08-24T01:49:37;5.40;;;4.32;;
4061;SDS011;2046;47.064;15.456;2023-08-24T01:52:05;5.25;;;4.38;;
4061;SDS011;2046;47.064;15.456;2023-08-24T01:54:32;6.38;;;4.28;;
4061;SDS011;2046;47.064;15.456;2023-08-24T01:56:58;7.18;;;4.40;;
4061;SDS011;2046;47.064;15.456;2023-08-24T01:59:25;7.38;;;4.38;;
4061;SDS011;2046;47.064;15.456;2023-08-24T02:01:52;7.00;;;4.63;;
4061;SDS011;2046;47.064;15.456;2023-08-24T02:04:18;4.35;;;3.95;;
4061;SDS011;2046;47.064;15.456;2023-08-24T02:06:45;5.38;;;4.25;;
4061;SDS011;2046;47.064;15.456;2023-08-24T02:09:11;7.68;;;4.15;;
4061;SDS011;2046;47.064;15.456;2023-08-24T02:11:38;5.35;;;4.40;;
4061;SDS011;2046;47.064;15.456;2023-08-24T02:14:05;6.25;;;4.38;;
4061;SDS011;2046;47.064;15.456;2023-08-24T02:16:31;6.60;;;4.50;;
4061;SDS011;2046;47.064;15.456;2023-08-24T02:18:58;6.78;;;4.63;;
4061;SDS011;2046;47.064;15.456;2023-08-24T02:21:24;5.20;;;4.50;;
4061;SDS011;2046;47.064;15.456;2023-08-24T02:23:51;6.38;;;4.88;;
4061;SDS011;2046;47.064;15.456;2023-08-24T02:26:17;4.72;;;4.22;;
4061;SDS011;2046;47.064;15.456;2023-08-24T02:28:44;5.47;;;4.07;;
4061;SDS011;2046;47.064;15.456;2023-08-24T02:31:11;6.65;;;4.10;;
4061;SDS011;2046;47.064;15.456;2023-08-24T02:33:38;5.13;;;4.10;;
4061;SDS011;2046;47.064;15.456;2023-08-24T02:36:04;7.18;;;4.28;;
4061;SDS011;2046;47.064;15.456;2023-08-24T02:38:31;6.40;;;4.30;;
4061;SDS011;2046;47.064;15.456;2023-08-24T02:41:04;4.95;;;3.75;;
4061;SDS011;2046;47.064;15.456;2023-08-24T02:43:31;4.55;;;3.80;;
4061;SDS011;2046;47.064;15.456;2023-08-24T02:46:05;9.18;;;4.68;;
4061;SDS011;2046;47.064;15.456;2023-08-24T02:48:32;4.70;;;4.20;;
4061;SDS011;2046;47.064;15.456;2023-08-24T02:50:59;6.07;;;4.47;;
4061;SDS011;2046;47.064;15.456;2023-08-24T02:53:27;7.13;;;4.40;;
4061;SDS011;2046;47.064;15.456;2023-08-24T02:55:54;7.53;;;4.68;;
4061;SDS011;2046;47.064;15.456;2023-08-24T02:58:21;4.97;;;4.18;;
4061;SDS011;2046;47.064;15.456;2023-08-24T03:00:47;5.40;;;4.32;;
4061;SDS011;2046;47.064;15.456;2023-08-24T03:03:14;5.13;;;4.13;;
4061;SDS011;2046;47.064;15.456;2023-08-24T03:05:52;5.05;;;4.43;;
4061;SDS011;2046;47.064;15.456;2023-08-24T03:08:19;5.85;;;4.25;;
4061;SDS011;2046;47.064;15.456;2023-08-24T03:10:45;7.18;;;4.32;;
4061;SDS011;2046;47.064;15.456;2023-08-24T03:13:13;7.93;;;4.63;;
4061;SDS011;2046;47.064;15.456;2023-08-24T03:15:40;5.63;;;4.72;;
4061;SDS011;2046;47.064;15.456;2023-08-24T03:18:07;7.03;;;4.85;;
4061;SDS011;2046;47.064;15.456;2023-08-24T03:20:33;6.50;;;4.55;;
4061;SDS011;2046;47.064;15.456;2023-08-24T03:23:00;5.95;;;4.25;;
4061;SDS011;2046;47.064;15.456;2023-08-24T03:25:26;5.38;;;4.45;;
4061;SDS011;2046;47.064;15.456;2023-08-24T03:27:53;6.50;;;4.68;;
4061;SDS011;2046;47.064;15.456;2023-08-24T03:30:19;5.30;;;4.40;;
4061;SDS011;2046;47.064;15.456;2023-08-24T03:32:46;7.43;;;4.53;;
4061;SDS011;2046;47.064;15.456;2023-08-24T03:35:13;6.13;;;4.60;;
4061;SDS011;2046;47.064;15.456;2023-08-24T03:37:39;4.80;;;4.30;;
4061;SDS011;2046;47.064;15.456;2023-08-24T03:40:06;7.10;;;4.47;;
4061;SDS011;2046;47.064;15.456;2023-08-24T03:42:33;6.03;;;5.03;;
4061;SDS011;2046;47.064;15.456;2023-08-24T03:44:59;7.22;;;4.38;;
4061;SDS011;2046;47.064;15.456;2023-08-24T03:47:26;5.60;;;4.20;;
4061;SDS011;2046;47.064;15.456;2023-08-24T03:49:53;5.60;;;4.07;;
4061;SDS011;2046;47.064;15.456;2023-08-24T03:52:19;5.20;;;4.18;;
4061;SDS011;2046;47.064;15.456;2023-08-24T03:54:46;5.38;;;3.97;;
4061;SDS011;2046;47.064;15.456;2023-08-24T03:57:13;6.20;;;4.45;;
4061;SDS011;2046;47.064;15.456;2023-08-24T03:59:41;4.93;;;4.13;;
4061;SDS011;2046;47.064;15.456;2023-08-24T04:02:10;7.78;;;4.75;;
4061;SDS011;2046;47.064;15.456;2023-08-24T04:04:36;7.95;;;4.85;;
4061;SDS011;2046;47.064;15.456;2023-08-24T04:07:03;7.47;;;4.20;;
4061;SDS011;2046;47.064;15.456;2023-08-24T04:09:29;6.93;;;4.53;;
4061;SDS011;2046;47.064;15.456;2023-08-24T04:11:56;10.13;;;4.25;;
4061;SDS011;2046;47.064;15.456;2023-08-24T04:14:23;5.22;;;4.38;;
4061;SDS011;2046;47.064;15.456;2023-08-24T04:16:49;5.28;;;4.22;;
4061;SDS011;2046;47.064;15.456;2023-08-24T04:19:16;6.43;;;4.25;;
4061;SDS011;2046;47.064;15.456;2023-08-24T04:21:43;5.88;;;4.47;;
4061;SDS011;2046;47.064;15.456;2023-08-24T04:24:10;5.43;;;4.30;;
4061;SDS011;2046;47.064;15.456;2023-08-24T04:26:36;6.32;;;4.47;;
4061;SDS011;2046;47.064;15.456;2023-08-24T04:29:03;5.95;;;4.40;;
4061;SDS011;2046;47.064;15.456;2023-08-24T04:31:29;6.15;;;4.15;;
4061;SDS011;2046;47.064;15.456;2023-08-24T04:33:56;6.45;;;4.47;;
4061;SDS011;2046;47.064;15.456;2023-08-24T04:36:23;4.45;;;4.05;;
4061;SDS011;2046;47.064;15.456;2023-08-24T04:38:49;5.43;;;4.38;;
4061;SDS011;2046;47.064;15.456;2023-08-24T04:41:16;7.00;;;4.70;;
4061;SDS011;2046;47.064;15.456;2023-08-24T04:43:43;5.55;;;4.13;;
4061;SDS011;2046;47.064;15.456;2023-08-24T04:46:09;5.53;;;4.28;;
4061;SDS011;2046;47.064;15.456;2023-08-24T04:48:36;7.13;;;4.72;;
4061;SDS011;2046;47.064;15.456;2023-08-24T04:51:02;6.28;;;4.25;;
4061;SDS011;2046;47.064;15.456;2023-08-24T04:53:29;7.50;;;4.32;;
4061;SDS011;2046;47.064;15.456;2023-08-24T04:55:56;5.57;;;4.88;;
4061;SDS011;2046;47.064;15.456;2023-08-24T04:58:23;4.57;;;4.13;;
4061;SDS011;2046;47.064;15.456;2023-08-24T05:00:49;6.22;;;4.93;;
4061;SDS011;2046;47.064;15.456;2023-08-24T05:03:16;5.53;;;4.07;;
4061;SDS011;2046;47.064;15.456;2023-08-24T05:05:42;5.80;;;4.50;;
4061;SDS011;2046;47.064;15.456;2023-08-24T05:08:09;6.78;;;4.50;;
4061;SDS011;2046;47.064;15.456;2023-08-24T05:10:38;5.50;;;4.80;;
4061;SDS011;2046;47.064;15.456;2023-08-24T05:13:05;6.85;;;4.97;;
4061;SDS011;2046;47.064;15.456;2023-08-24T05:15:32;8.52;;;4.80;;
4061;SDS011;2046;47.064;15.456;2023-08-24T05:17:58;7.63;;;4.75;;
4061;SDS011;2046;47.064;15.456;2023-08-24T05:20:26;10.57;;;4.82;;
4061;SDS011;2046;47.064;15.456;2023-08-24T05:22:53;12.90;;;5.38;;
4061;SDS011;2046;47.064;15.456;2023-08-24T05:25:23;15.05;;;5.53;;
4061;SDS011;2046;47.064;15.456;2023-08-24T05:27:49;17.98;;;5.50;;
4061;SDS011;2046;47.064;15.456;2023-08-24T05:30:17;15.15;;;5.40;;
4061;SDS011;2046;47.064;15.456;2023-08-24T05:32:43;12.15;;;5.55;;
4061;SDS011;2046;47.064;15.456;2023-08-24T05:35:10;12.35;;;5.57;;
4061;SDS011;2046;47.064;15.456;2023-08-24T05:37:37;19.40;;;5.72;;
4061;SDS011;2046;47.064;15.456;2023-08-24T05:40:04;18.77;;;6.35;;
4061;SDS011;2046;47.064;15.456;2023-08-24T05:42:31;17.27;;;5.85;;
4061;SDS011;2046;47.064;15.456;2023-08-24T05:44:58;21.45;;;5.75;;
4061;SDS011;2046;47.064;15.456;2023-08-24T05:47:25;13.48;;;5.57;;
4061;SDS011;2046;47.064;15.456;2023-08-24T05:49:51;19.00;;;5.95;;
4061;SDS011;2046;47.064;15.456;2023-08-24T05:52:18;12.00;;;5.43;;
4061;SDS011;2046;47.064;15.456;2023-08-24T05:54:45;8.73;;;4.80;;
4061;SDS011;2046;47.064;15.456;2023-08-24T05:57:11;9.63;;;4.78;;
4061;SDS011;2046;47.064;15.456;2023-08-24T05:59:38;9.25;;;5.03;;
4061;SDS011;2046;47.064;15.456;2023-08-24T06:02:04;6.00;;;4.97;;
4061;SDS011;2046;47.064;15.456;2023-08-24T06:04:31;8.05;;;5.07;;
4061;SDS011;2046;47.064;15.456;2023-08-24T06:06:58;4.93;;;4.43;;
4061;SDS011;2046;47.064;15.456;2023-08-24T06:09:24;8.20;;;4.70;;
4061;SDS011;2046;47.064;15.456;2023-08-24T06:11:51;7.43;;;4.55;;
4061;SDS011;2046;47.064;15.456;2023-08-24T06:14:17;4.95;;;4.45;;
4061;SDS011;2046;47.064;15.456;2023-08-24T06:16:44;9.93;;;5.53;;
4061;SDS011;2046;47.064;15.456;2023-08-24T06:19:10;6.10;;;4.68;;
4061;SDS011;2046;47.064;15.456;2023-08-24T06:21:37;10.02;;;5.18;;
4061;SDS011;2046;47.064;15.456;2023-08-24T06:24:04;6.03;;;4.78;;
4061;SDS011;2046;47.064;15.456;2023-08-24T06:26:30;7.53;;;5.25;;
4061;SDS011;2046;47.064;15.456;2023-08-24T06:28:57;9.95;;;5.25;;
4061;SDS011;2046;47.064;15.456;2023-08-24T06:31:23;7.72;;;5.13;;
4061;SDS011;2046;47.064;15.456;2023-08-24T06:33:50;9.18;;;5.18;;
4061;SDS011;2046;47.064;15.456;2023-08-24T06:36:17;8.93;;;5.38;;
4061;SDS011;2046;47.064;15.456;2023-08-24T06:38:43;6.63;;;5.45;;
4061;SDS011;2046;47.064;15.456;2023-08-24T06:41:10;9.90;;;5.82;;
4061;SDS011;2046;47.064;15.456;2023-08-24T06:43:38;9.55;;;6.43;;
4061;SDS011;2046;47.064;15.456;2023-08-24T06:46:06;10.82;;;5.80;;
4061;SDS011;2046;47.064;15.456;2023-08-24T06:48:36;13.73;;;6.85;;
4061;SDS011;2046;47.064;15.456;2023-08-24T06:51:03;9.05;;;5.97;;
4061;SDS011;2046;47.064;15.456;2023-08-24T06:53:30;9.10;;;5.50;;
4061;SDS011;2046;47.064;15.456;2023-08-24T06:55:57;9.15;;;5.65;;
4061;SDS011;2046;47.064;15.456;2023-08-24T06:58:24;7.15;;;5.45;;
4061;SDS011;2046;47.064;15.456;2023-08-24T07:00:51;9.10;;;5.93;;
4061;SDS011;2046;47.064;15.456;2023-08-24T07:03:17;9.57;;;5.70;;
4061;SDS011;2046;47.064;15.456;2023-08-24T07:05:45;11.90;;;6.13;;
4061;SDS011;2046;47.064;15.456;2023-08-24T07:08:12;9.70;;;5.55;;
4061;SDS011;2046;47.064;15.456;2023-08-24T07:10:39;6.10;;;5.28;;
4061;SDS011;2046;47.064;15.456;2023-08-24T07:13:06;9.77;;;6.60;;
4061;SDS011;2046;47.064;15.456;2023-08-24T07:15:33;10.55;;;6.68;;
4061;SDS011;2046;47.064;15.456;2023-08-24T07:18:02;10.32;;;7.07;;
4061;SDS011;2046;47.064;15.456;2023-08-24T07:20:29;14.55;;;7.18;;
4061;SDS011;2046;47.064;15.456;2023-08-24T07:22:56;10.45;;;7.32;;
4061;SDS011;2046;47.064;15.456;2023-08-24T07:25:24;11.48;;;6.32;;
4061;SDS011;2046;47.064;15.456;2023-08-24T07:27:50;7.90;;;6.78;;
4061;SDS011;2046;47.064;15.456;2023-08-24T07:30:17;8.82;;;6.53;;
4061;SDS011;2046;47.064;15.456;2023-08-24T07:32:58;10.65;;;7.30;;
4061;SDS011;2046;47.064;15.456;2023-08-24T07:35:25;10.15;;;6.97;;
4061;SDS011;2046;47.064;15.456;2023-08-24T07:37:52;12.65;;;7.50;;
4061;SDS011;2046;47.064;15.456;2023-08-24T07:40:19;13.18;;;9.32;;
4061;SDS011;2046;47.064;15.456;2023-08-24T07:42:47;13.48;;;10.30;;
4061;SDS011;2046;47.064;15.456;2023-08-24T07:45:13;13.68;;;9.85;;
4061;SDS011;2046;47.064;15.456;2023-08-24T07:47:40;25.27;;;21.05;;
4061;SDS011;2046;47.064;15.456;2023-08-24T07:50:08;17.10;;;15.30;;
4061;SDS011;2046;47.064;15.456;2023-08-24T07:52:35;146.73;;;132.02;;
4061;SDS011;2046;47.064;15.456;2023-08-24T07:55:02;348.20;;;305.77;;
4061;SDS011;2046;47.064;15.456;2023-08-24T07:57:30;244.02;;;217.93;;
4061;SDS011;2046;47.064;15.456;2023-08-24T07:59:58;319.25;;;285.40;;
4061;SDS011;2046;47.064;15.456;2023-08-24T08:02:25;274.23;;;245.85;;
4061;SDS011;2046;47.064;15.456;2023-08-24T08:04:55;487.45;;;410.60;;
4061;SDS011;2046;47.064;15.456;2023-08-24T08:07:23;301.70;;;263.42;;
4061;SDS011;2046;47.064;15.456;2023-08-24T08:09:49;189.55;;;168.40;;
4061;SDS011;2046;47.064;15.456;2023-08-24T08:12:16;167.30;;;146.98;;
4061;SDS011;2046;47.064;15.456;2023-08-24T08:14:43;164.82;;;139.00;;
4061;SDS011;2046;47.064;15.456;2023-08-24T08:17:10;141.98;;;125.97;;
4061;SDS011;2046;47.064;15.456;2023-08-24T08:19:36;138.43;;;119.85;;
4061;SDS011;2046;47.064;15.456;2023-08-24T08:22:04;251.05;;;209.20;;
4061;SDS011;2046;47.064;15.456;2023-08-24T08:24:35;292.60;;;120.43;;
4061;SDS011;2046;47.064;15.456;2023-08-24T08:27:02;107.63;;;92.78;;
4061;SDS011;2046;47.064;15.456;2023-08-24T08:29:29;98.45;;;81.10;;
4061;SDS011;2046;47.064;15.456;2023-08-24T08:31:56;90.78;;;78.05;;
4061;SDS011;2046;47.064;15.456;2023-08-24T08:34:23;86.03;;;72.43;;
4061;SDS011;2046;47.064;15.456;2023-08-24T08:36:49;79.40;;;67.10;;
4061;SDS011;2046;47.064;15.456;2023-08-24T08:39:16;81.28;;;68.15;;
4061;SDS011;2046;47.064;15.456;2023-08-24T08:41:44;69.55;;;59.97;;
4061;SDS011;2046;47.064;15.456;2023-08-24T08:44:15;75.15;;;61.92;;
4061;SDS011;2046;47.064;15.456;2023-08-24T08:46:42;69.32;;;59.85;;
4061;SDS011;2046;47.064;15.456;2023-08-24T08:49:09;65.95;;;56.67;;
4061;SDS011;2046;47.064;15.456;2023-08-24T08:51:36;67.43;;;57.38;;
4061;SDS011;2046;47.064;15.456;2023-08-24T08:54:03;61.45;;;53.95;;
4061;SDS011;2046;47.064;15.456;2023-08-24T08:56:32;67.50;;;52.80;;
4061;SDS011;2046;47.064;15.456;2023-08-24T08:58:59;61.78;;;50.97;;
4061;SDS011;2046;47.064;15.456;2023-08-24T09:01:27;60.45;;;51.75;;
4061;SDS011;2046;47.064;15.456;2023-08-24T09:03:54;56.03;;;48.70;;
4061;SDS011;2046;47.064;15.456;2023-08-24T09:06:21;58.67;;;49.33;;
4061;SDS011;2046;47.064;15.456;2023-08-24T09:08:47;54.88;;;47.13;;
4061;SDS011;2046;47.064;15.456;2023-08-24T09:11:15;67.28;;;54.08;;
4061;SDS011;2046;47.064;15.456;2023-08-24T09:13:41;62.00;;;51.42;;
4061;SDS011;2046;47.064;15.456;2023-08-24T09:16:08;58.75;;;49.05;;
4061;SDS011;2046;47.064;15.456;2023-08-24T09:18:37;56.42;;;46.10;;
4061;SDS011;2046;47.064;15.456;2023-08-24T09:21:11;51.25;;;43.63;;
4061;SDS011;2046;47.064;15.456;2023-08-24T09:24:00;54.55;;;48.40;;
4061;SDS011;2046;47.064;15.456;2023-08-24T09:26:33;52.53;;;46.80;;
4061;SDS011;2046;47.064;15.456;2023-08-24T09:29:05;52.88;;;45.20;;
4061;SDS011;2046;47.064;15.456;2023-08-24T09:31:37;55.95;;;45.45;;
4061;SDS011;2046;47.064;15.456;2023-08-24T09:34:05;50.88;;;41.72;;
4061;SDS011;2046;47.064;15.456;2023-08-24T09:36:33;47.80;;;41.00;;
4061;SDS011;2046;47.064;15.456;2023-08-24T09:38:59;45.47;;;39.72;;
4061;SDS011;2046;47.064;15.456;2023-08-24T09:41:40;45.80;;;37.40;;
4061;SDS011;2046;47.064;15.456;2023-08-24T09:44:07;40.72;;;35.55;;
4061;SDS011;2046;47.064;15.456;2023-08-24T09:46:35;40.58;;;34.47;;
4061;SDS011;2046;47.064;15.456;2023-08-24T09:49:05;38.03;;;33.90;;
4061;SDS011;2046;47.064;15.456;2023-08-24T09:51:35;42.08;;;33.75;;
4061;SDS011;2046;47.064;15.456;2023-08-24T09:54:09;40.97;;;33.35;;
4061;SDS011;2046;47.064;15.456;2023-08-24T09:56:36;37.00;;;31.20;;
4061;SDS011;2046;47.064;15.456;2023-08-24T09:59:14;37.33;;;31.38;;
4061;SDS011;2046;47.064;15.456;2023-08-24T10:01:45;35.10;;;29.88;;
4061;SDS011;2046;47.064;15.456;2023-08-24T10:04:14;33.70;;;29.95;;
4061;SDS011;2046;47.064;15.456;2023-08-24T10:06:42;32.58;;;29.08;;
4061;SDS011;2046;47.064;15.456;2023-08-24T10:09:11;36.30;;;28.83;;
4061;SDS011;2046;47.064;15.456;2023-08-24T10:11:42;32.47;;;28.40;;
4061;SDS011;2046;47.064;15.456;2023-08-24T10:14:13;32.15;;;27.77;;
4061;SDS011;2046;47.064;15.456;2023-08-24T10:16:42;30.70;;;27.38;;
4061;SDS011;2046;47.064;15.456;2023-08-24T10:19:09;28.45;;;25.35;;
4061;SDS011;2046;47.064;15.456;2023-08-24T10:21:37;30.42;;;25.52;;
4061;SDS011;2046;47.064;15.456;2023-08-24T10:24:04;28.08;;;25.10;;
4061;SDS011;2046;47.064;15.456;2023-08-24T10:26:32;25.88;;;23.10;;
4061;SDS011;2046;47.064;15.456;2023-08-24T10:28:59;25.90;;;23.10;;
4061;SDS011;2046;47.064;15.456;2023-08-24T10:31:26;28.25;;;22.70;;
4061;SDS011;2046;47.064;15.456;2023-08-24T10:33:54;24.95;;;22.33;;
4061;SDS011;2046;47.064;15.456;2023-08-24T10:36:21;27.23;;;23.27;;
4061;SDS011;2046;47.064;15.456;2023-08-24T10:38:49;25.27;;;22.02;;
4061;SDS011;2046;47.064;15.456;2023-08-24T10:41:16;27.73;;;21.92;;
4061;SDS011;2046;47.064;15.456;2023-08-24T10:43:49;24.05;;;20.98;;
4061;SDS011;2046;47.064;15.456;2023-08-24T10:46:16;23.65;;;20.75;;
4061;SDS011;2046;47.064;15.456;2023-08-24T10:53:52;23.58;;;19.95;;
4061;SDS011;2046;47.064;15.456;2023-08-24T10:56:19;21.38;;;18.83;;
4061;SDS011;2046;47.064;15.456;2023-08-24T10:58:47;20.20;;;18.10;;
4061;SDS011;2046;47.064;15.456;2023-08-24T11:01:14;20.30;;;18.10;;
4061;SDS011;2046;47.064;15.456;2023-08-24T11:03:42;19.67;;;17.58;;
4061;SDS011;2046;47.064;15.456;2023-08-24T11:06:19;20.85;;;18.45;;
4061;SDS011;2046;47.064;15.456;2023-08-24T11:08:49;21.23;;;17.08;;
4061;SDS011;2046;47.064;15.456;2023-08-24T11:11:19;18.75;;;16.77;;
4061;SDS011;2046;47.064;15.456;2023-08-24T11:16:39;17.75;;;15.85;;
4061;SDS011;2046;47.064;15.456;2023-08-24T11:19:06;17.83;;;15.77;;
4061;SDS011;2046;47.064;15.456;2023-08-24T11:21:33;19.08;;;16.00;;
4061;SDS011;2046;47.064;15.456;2023-08-24T11:24:00;17.85;;;15.90;;
4061;SDS011;2046;47.064;15.456;2023-08-24T11:26:29;16.85;;;15.05;;
4061;SDS011;2046;47.064;15.456;2023-08-24T11:28:59;16.90;;;14.98;;
4061;SDS011;2046;47.064;15.456;2023-08-24T11:31:26;16.88;;;14.68;;
4061;SDS011;2046;47.064;15.456;2023-08-24T11:33:54;16.33;;;14.63;;
4061;SDS011;2046;47.064;15.456;2023-08-24T11:36:24;17.95;;;14.35;;
4061;SDS011;2046;47.064;15.456;2023-08-24T11:38:56;16.92;;;13.98;;
4061;SDS011;2046;47.064;15.456;2023-08-24T11:41:23;18.48;;;14.70;;
4061;SDS011;2046;47.064;15.456;2023-08-24T11:43:55;15.02;;;13.52;;
4061;SDS011;2046;47.064;15.456;2023-08-24T11:46:24;14.15;;;12.18;;
4061;SDS011;2046;47.064;15.456;2023-08-24T11:48:51;15.55;;;13.27;;
4061;SDS011;2046;47.064;15.456;2023-08-24T11:51:18;14.88;;;12.85;;
4061;SDS011;2046;47.064;15.456;2023-08-24T11:54:03;14.18;;;12.70;;
4061;SDS011;2046;47.064;15.456;2023-08-24T11:56:30;14.32;;;12.60;;
4061;SDS011;2046;47.064;15.456;2023-08-24T11:58:57;14.25;;;12.85;;
4061;SDS011;2046;47.064;15.456;2023-08-24T12:01:24;14.77;;;12.73;;
4061;SDS011;2046;47.064;15.456;2023-08-24T12:03:53;14.65;;;12.35;;
4061;SDS011;2046;47.064;15.456;2023-08-24T12:06:20;13.50;;;11.55;;
4061;SDS011;2046;47.064;15.456;2023-08-24T12:08:47;15.70;;;11.93;;
4061;SDS011;2046;47.064;15.456;2023-08-24T12:11:15;12.20;;;11.00;;
4061;SDS011;2046;47.064;15.456;2023-08-24T12:13:45;13.13;;;11.18;;
4061;SDS011;2046;47.064;15.456;2023-08-24T12:16:13;12.55;;;11.20;;
4061;SDS011;2046;47.064;15.456;2023-08-24T12:19:01;12.07;;;10.85;;
4061;SDS011;2046;47.064;15.456;2023-08-24T12:21:29;12.82;;;11.38;;
4061;SDS011;2046;47.064;15.456;2023-08-24T12:23:57;11.85;;;10.43;;
4061;SDS011;2046;47.064;15.456;2023-08-24T12:26:25;11.73;;;10.40;;
4061;SDS011;2046;47.064;15.456;2023-08-24T12:28:53;12.25;;;10.85;;
4061;SDS011;2046;47.064;15.456;2023-08-24T12:31:19;12.25;;;10.95;;
4061;SDS011;2046;47.064;15.456;2023-08-24T12:33:58;12.07;;;10.50;;
4061;SDS011;2046;47.064;15.456;2023-08-24T12:36:25;12.00;;;10.75;;
4061;SDS011;2046;47.064;15.456;2023-08-24T12:38:52;11.57;;;9.85;;
4061;SDS011;2046;47.064;15.456;2023-08-24T12:41:19;12.95;;;9.93;;
4061;SDS011;2046;47.064;15.456;2023-08-24T12:43:46;11.15;;;9.95;;
4061;SDS011;2046;47.064;15.456;2023-08-24T12:46:13;12.60;;;9.80;;
4061;SDS011;2046;47.064;15.456;2023-08-24T12:48:39;11.60;;;10.13;;
4061;SDS011;2046;47.064;15.456;2023-08-24T12:51:06;13.73;;;9.73;;
4061;SDS011;2046;47.064;15.456;2023-08-24T12:53:33;11.07;;;9.52;;
4061;SDS011;2046;47.064;15.456;2023-08-24T12:55:59;10.45;;;9.35;;
4061;SDS011;2046;47.064;15.456;2023-08-24T12:58:26;11.80;;;9.23;;
4061;SDS011;2046;47.064;15.456;2023-08-24T13:00:53;11.30;;;9.10;;
4061;SDS011;2046;47.064;15.456;2023-08-24T13:03:20;11.02;;;9.25;;
4061;SDS011;2046;47.064;15.456;2023-08-24T13:05:46;9.68;;;8.65;;
4061;SDS011;2046;47.064;15.456;2023-08-24T13:08:14;12.15;;;9.05;;
4061;SDS011;2046;47.064;15.456;2023-08-24T13:10:40;9.73;;;8.75;;
4061;SDS011;2046;47.064;15.456;2023-08-24T13:13:08;10.48;;;8.75;;
4061;SDS011;2046;47.064;15.456;2023-08-24T13:15:34;9.32;;;8.35;;
4061;SDS011;2046;47.064;15.456;2023-08-24T13:18:01;10.27;;;9.18;;
4061;SDS011;2046;47.064;15.456;2023-08-24T13:20:28;10.13;;;8.55;;
4061;SDS011;2046;47.064;15.456;2023-08-24T13:22:55;8.75;;;7.85;;
4061;SDS011;2046;47.064;15.456;2023-08-24T13:25:21;9.90;;;8.25;;
4061;SDS011;2046;47.064;15.456;2023-08-24T13:27:48;10.23;;;8.68;;
4061;SDS011;2046;47.064;15.456;2023-08-24T13:30:15;12.45;;;8.48;;
4061;SDS011;2046;47.064;15.456;2023-08-24T13:32:41;9.13;;;8.23;;
4061;SDS011;2046;47.064;15.456;2023-08-24T13:35:08;9.05;;;7.80;;
4061;SDS011;2046;47.064;15.456;2023-08-24T13:37:35;8.68;;;7.78;;
4061;SDS011;2046;47.064;15.456;2023-08-24T13:40:02;10.55;;;8.10;;
4061;SDS011;2046;47.064;15.456;2023-08-24T13:42:30;9.13;;;7.95;;
4061;SDS011;2046;47.064;15.456;2023-08-24T13:44:56;8.70;;;7.22;;
4061;SDS011;2046;47.064;15.456;2023-08-24T13:47:23;9.38;;;7.40;;
4061;SDS011;2046;47.064;15.456;2023-08-24T13:49:50;8.57;;;7.68;;
4061;SDS011;2046;47.064;15.456;2023-08-24T13:52:16;8.63;;;7.60;;
4061;SDS011;2046;47.064;15.456;2023-08-24T13:54:45;8.70;;;7.60;;
4061;SDS011;2046;47.064;15.456;2023-08-24T13:57:21;10.00;;;7.65;;
4061;SDS011;2046;47.064;15.456;2023-08-24T13:59:49;6.53;;;5.43;;
4061;SDS011;2046;47.064;15.456;2023-08-24T14:02:17;7.88;;;6.85;;
4061;SDS011;2046;47.064;15.456;2023-08-24T14:04:44;8.73;;;7.38;;
4061;SDS011;2046;47.064;15.456;2023-08-24T14:07:10;8.20;;;7.45;;
4061;SDS011;2046;47.064;15.456;2023-08-24T14:09:40;8.68;;;7.32;;
4061;SDS011;2046;47.064;15.456;2023-08-24T14:12:24;7.40;;;6.70;;
4061;SDS011;2046;47.064;15.456;2023-08-24T14:14:51;9.07;;;7.30;;
4061;SDS011;2046;47.064;15.456;2023-08-24T14:17:18;12.63;;;11.32;;
4061;SDS011;2046;47.064;15.456;2023-08-24T14:19:44;21.00;;;17.90;;
4061;SDS011;2046;47.064;15.456;2023-08-24T14:22:11;75.78;;;56.00;;
4061;SDS011;2046;47.064;15.456;2023-08-24T14:24:42;30.88;;;21.77;;
4061;SDS011;2046;47.064;15.456;2023-08-24T14:27:18;23.80;;;17.67;;
4061;SDS011;2046;47.064;15.456;2023-08-24T14:29:45;21.33;;;15.55;;
4061;SDS011;2046;47.064;15.456;2023-08-24T14:32:12;17.42;;;12.90;;
4061;SDS011;2046;47.064;15.456;2023-08-24T14:34:39;17.73;;;11.73;;
4061;SDS011;2046;47.064;15.456;2023-08-24T14:37:09;13.15;;;10.63;;
4061;SDS011;2046;47.064;15.456;2023-08-24T14:39:35;11.45;;;10.05;;
4061;SDS011;2046;47.064;15.456;2023-08-24T14:42:02;13.30;;;9.40;;
4061;SDS011;2046;47.064;15.456;2023-08-24T14:44:31;10.77;;;9.27;;
4061;SDS011;2046;47.064;15.456;2023-08-24T14:46:57;9.82;;;8.30;;
4061;SDS011;2046;47.064;15.456;2023-08-24T14:49:24;11.02;;;8.05;;
4061;SDS011;2046;47.064;15.456;2023-08-24T14:51:51;10.20;;;7.40;;
4061;SDS011;2046;47.064;15.456;2023-08-24T14:54:18;98.80;;;58.55;;
4061;SDS011;2046;47.064;15.456;2023-08-24T14:56:45;16.25;;;12.77;;
4061;SDS011;2046;47.064;15.456;2023-08-24T14:59:11;10.02;;;8.13;;
4061;SDS011;2046;47.064;15.456;2023-08-24T15:01:38;8.23;;;7.22;;
4061;SDS011;2046;47.064;15.456;2023-08-24T15:04:05;8.63;;;7.13;;
4061;SDS011;2046;47.064;15.456;2023-08-24T15:06:31;7.93;;;7.10;;